Time;durP1;ratioP1;P1;durP2;ratioP2;P2;SDS_P1;SDS_P2;PMS_P1;PMS_P2;Temp;Humidity;BMP_temperature;BMP_pressure;BME280_temperature;BME280_humidity;BME280_pressure;Samples;Min_cycle;Max_cycle;Signal;HPM_P1;HPM_P2
2021/01/11 00:01:59;;;;;;;12.98;9.77;;;24.40;28.10;;;;;;5031114;28;20407;-59
2021/01/11 00:04:25;;;;;;;12.18;9.25;;;24.40;28.20;;;;;;5031266;28;20379;-76
2021/01/11 00:06:50;;;;;;;12.13;9.20;;;24.30;28.10;;;;;;5030765;28;20760;-60
2021/01/11 00:09:16;;;;;;;12.27;9.20;;;24.30;28.10;;;;;;5029893;28;20409;-59
2021/01/11 00:11:42;;;;;;;11.57;8.48;;;24.30;28.10;;;;;;5031006;28;20401;-58
2021/01/11 00:14:08;;;;;;;11.57;8.93;;;24.30;27.90;;;;;;5030593;28;20452;-60
2021/01/11 00:16:34;;;;;;;11.02;9.10;;;24.30;28.20;;;;;;5030965;28;20482;-58
2021/01/11 00:19:00;;;;;;;11.23;8.70;;;24.30;28.10;;;;;;5030486;28;20402;-59
2021/01/11 00:21:27;;;;;;;10.85;8.65;;;24.20;28.10;;;;;;5030550;28;20437;-59
2021/01/11 00:23:53;;;;;;;11.23;8.88;;;24.20;28.20;;;;;;5030592;28;20818;-59
2021/01/11 00:26:19;;;;;;;10.93;8.07;;;24.20;28.10;;;;;;5030654;28;20395;-59
2021/01/11 00:28:45;;;;;;;10.48;8.52;;;24.10;28.20;;;;;;5045677;28;20452;-60
2021/01/11 00:31:11;;;;;;;9.73;8.07;;;24.10;28.20;;;;;;5030311;28;20491;-59
2021/01/11 00:33:37;;;;;;;10.57;8.37;;;24.10;28.20;;;;;;5025060;28;20899;-60
2021/01/11 00:36:05;;;;;;;9.88;8.40;;;24.10;28.10;;;;;;5030382;28;20394;-59
2021/01/11 00:38:31;;;;;;;9.40;7.95;;;24.10;28.20;;;;;;5030524;28;20875;-67
2021/01/11 00:40:57;;;;;;;10.05;8.30;;;24.00;28.10;;;;;;5027343;28;20425;-59
2021/01/11 00:43:22;;;;;;;9.13;7.63;;;24.00;28.20;;;;;;5030501;28;20387;-59
2021/01/11 00:45:48;;;;;;;9.55;7.80;;;24.00;28.20;;;;;;5030375;28;20391;-59
2021/01/11 00:48:14;;;;;;;9.67;8.00;;;23.90;28.20;;;;;;5030189;28;20453;-59
2021/01/11 00:50:39;;;;;;;9.35;7.68;;;23.90;28.20;;;;;;5030493;28;20390;-77
2021/01/11 00:53:05;;;;;;;9.98;8.02;;;23.90;28.20;;;;;;5029649;28;20410;-59
2021/01/11 00:55:30;;;;;;;9.47;7.67;;;23.80;28.20;;;;;;5032051;28;20383;-59
2021/01/11 00:57:56;;;;;;;9.43;7.75;;;23.80;28.20;;;;;;5033138;28;20384;-59
2021/01/11 01:00:22;;;;;;;8.70;7.73;;;23.80;28.20;;;;;;5033044;28;20556;-59
2021/01/11 01:02:48;;;;;;;9.57;8.07;;;23.70;28.20;;;;;;5033871;28;20383;-59
2021/01/11 01:05:15;;;;;;;8.63;7.67;;;23.60;27.90;;;;;;5034318;28;20383;-60
2021/01/11 01:07:42;;;;;;;9.15;7.75;;;23.50;28.10;;;;;;5032948;28;20398;-59
2021/01/11 01:10:09;;;;;;;11.18;7.90;;;23.50;28.00;;;;;;5034169;28;20411;-59
2021/01/11 01:12:34;;;;;;;9.38;7.40;;;23.40;28.10;;;;;;5033882;28;20387;-59
2021/01/11 01:15:00;;;;;;;9.33;7.53;;;23.40;28.20;;;;;;5033684;28;20400;-59
2021/01/11 01:17:26;;;;;;;9.90;7.70;;;23.40;28.40;;;;;;5034536;28;20375;-59
2021/01/11 01:19:52;;;;;;;10.63;7.60;;;23.30;28.30;;;;;;5033973;28;20399;-59
2021/01/11 01:22:17;;;;;;;9.07;7.50;;;23.30;28.40;;;;;;5034105;28;20399;-59
2021/01/11 01:24:43;;;;;;;9.38;7.30;;;23.30;28.40;;;;;;5034015;28;20391;-60
2021/01/11 01:27:09;;;;;;;9.50;7.70;;;23.20;28.40;;;;;;5033563;28;20394;-59
2021/01/11 01:29:35;;;;;;;9.85;7.50;;;23.20;28.40;;;;;;5033955;28;20399;-59
2021/01/11 01:32:01;;;;;;;8.20;7.10;;;23.20;28.50;;;;;;5033820;28;20490;-59
2021/01/11 01:34:26;;;;;;;8.93;7.33;;;23.20;28.50;;;;;;5033786;28;20490;-60
2021/01/11 01:36:52;;;;;;;9.60;7.38;;;23.10;28.50;;;;;;5033539;28;20387;-59
2021/01/11 01:39:17;;;;;;;9.67;7.17;;;23.10;28.50;;;;;;5033452;28;20434;-59
2021/01/11 01:41:45;;;;;;;8.07;7.05;;;23.00;28.40;;;;;;5033778;28;20427;-59
2021/01/11 01:44:10;;;;;;;8.70;7.63;;;23.00;28.50;;;;;;5033668;28;20425;-60
2021/01/11 01:46:37;;;;;;;8.30;7.10;;;23.00;28.50;;;;;;5033645;28;20434;-59
2021/01/11 01:49:04;;;;;;;8.53;7.47;;;23.00;28.50;;;;;;5033099;28;20391;-59
2021/01/11 01:51:30;;;;;;;8.57;6.82;;;22.90;28.50;;;;;;5033086;28;20406;-59
2021/01/11 01:53:56;;;;;;;7.90;7.00;;;22.90;28.60;;;;;;5033367;28;20458;-59
2021/01/11 01:56:26;;;;;;;9.07;7.22;;;22.80;28.50;;;;;;5033467;28;20395;-59
2021/01/11 01:58:52;;;;;;;8.00;7.03;;;22.90;28.60;;;;;;5033116;28;20413;-58
2021/01/11 02:01:18;;;;;;;8.32;7.00;;;22.80;28.60;;;;;;5033188;28;20402;-58
2021/01/11 02:03:44;;;;;;;8.45;7.07;;;22.80;28.70;;;;;;5032047;28;20387;-59
2021/01/11 02:06:10;;;;;;;8.30;7.00;;;22.80;28.80;;;;;;5033123;28;20470;-59
2021/01/11 02:08:52;;;;;;;8.43;7.15;;;22.70;28.50;;;;;;5032774;28;20789;-59
2021/01/11 02:11:27;;;;;;;8.07;7.03;;;22.70;28.60;;;;;;5033000;28;20402;-59
2021/01/11 02:14:23;;;;;;;8.00;6.75;;;22.70;28.60;;;;;;5033141;28;20379;-59
2021/01/11 02:17:03;;;;;;;7.70;6.90;;;22.70;28.60;;;;;;5032852;28;20930;-59
2021/01/11 02:19:44;;;;;;;7.97;6.87;;;22.60;28.60;;;;;;5033063;28;20471;-59
2021/01/11 02:22:13;;;;;;;8.10;6.90;;;22.60;28.60;;;;;;5033021;28;20453;-59
2021/01/11 02:25:17;;;;;;;7.90;6.82;;;22.60;28.60;;;;;;5033034;28;20422;-59
2021/01/11 02:27:57;;;;;;;7.63;6.78;;;22.50;28.60;;;;;;5033471;28;20384;-59
2021/01/11 02:30:34;;;;;;;7.55;6.60;;;22.50;28.60;;;;;;5032917;28;20391;-59
2021/01/11 02:33:12;;;;;;;7.22;6.50;;;22.50;28.60;;;;;;5032186;28;21064;-59
2021/01/11 02:35:49;;;;;;;7.90;6.85;;;22.40;28.60;;;;;;5032935;28;20395;-59
2021/01/11 02:38:17;;;;;;;7.75;6.70;;;22.40;28.80;;;;;;5032708;28;20376;-59
2021/01/11 02:40:44;;;;;;;7.28;6.47;;;22.40;28.80;;;;;;5032452;28;20804;-59
2021/01/11 02:43:10;;;;;;;7.35;6.55;;;22.40;28.60;;;;;;5032171;28;20387;-59
2021/01/11 02:45:36;;;;;;;7.85;6.78;;;22.30;28.60;;;;;;5032585;28;20413;-59
2021/01/11 02:48:16;;;;;;;7.87;6.93;;;22.30;28.60;;;;;;5032409;28;20474;-59
2021/01/11 02:51:16;;;;;;;7.47;6.60;;;22.30;28.60;;;;;;5032376;28;20466;-62
2021/01/11 02:54:12;;;;;;;7.87;6.73;;;22.30;29.40;;;;;;5032476;28;20428;-59
2021/01/11 02:56:52;;;;;;;7.90;6.43;;;22.30;28.80;;;;;;5032361;28;20397;-59
2021/01/11 02:59:19;;;;;;;7.57;6.60;;;22.20;28.60;;;;;;5030570;28;20405;-59
2021/01/11 03:01:54;;;;;;;7.03;6.10;;;22.20;29.30;;;;;;5032247;28;20942;-59
2021/01/11 03:04:25;;;;;;;7.32;6.45;;;22.20;28.80;;;;;;5031048;28;20395;-59
2021/01/11 03:06:59;;;;;;;8.10;6.53;;;22.10;29.10;;;;;;5032220;28;20379;-59
2021/01/11 03:09:25;;;;;;;7.75;6.70;;;22.10;28.80;;;;;;5032223;28;20386;-59
2021/01/11 03:11:51;;;;;;;7.90;6.80;;;22.10;29.00;;;;;;5032033;28;20383;-59
2021/01/11 03:14:17;;;;;;;7.90;6.65;;;22.10;29.30;;;;;;5032281;28;20379;-59
2021/01/11 03:16:43;;;;;;;8.15;7.03;;;22.00;29.30;;;;;;5031930;28;20748;-59
2021/01/11 03:19:08;;;;;;;7.50;6.70;;;22.00;29.10;;;;;;5031359;28;20803;-59
2021/01/11 03:21:35;;;;;;;7.63;6.80;;;22.00;29.20;;;;;;5031909;28;20400;-58
2021/01/11 03:24:01;;;;;;;7.78;6.63;;;22.00;29.30;;;;;;5031885;28;21062;-59
2021/01/11 03:26:26;;;;;;;7.95;6.63;;;21.90;29.30;;;;;;5031786;28;20477;-59
2021/01/11 03:28:53;;;;;;;7.10;6.25;;;21.90;29.10;;;;;;5031817;28;20432;-59
2021/01/11 03:31:19;;;;;;;7.78;6.97;;;21.90;29.10;;;;;;5031611;28;21218;-59
2021/01/11 03:33:45;;;;;;;7.28;6.57;;;21.80;29.30;;;;;;5031507;28;20403;-59
2021/01/11 03:36:10;;;;;;;8.00;7.20;;;21.90;29.30;;;;;;5031702;28;20403;-58
2021/01/11 03:38:38;;;;;;;7.57;6.78;;;21.80;28.90;;;;;;5031667;28;20391;-59
2021/01/11 03:41:04;;;;;;;7.60;6.80;;;21.80;28.80;;;;;;5029713;28;20426;-59
2021/01/11 03:43:30;;;;;;;7.70;6.38;;;21.80;29.20;;;;;;5031798;28;20446;-59
2021/01/11 03:45:56;;;;;;;8.40;6.90;;;21.80;28.80;;;;;;5030614;28;20418;-59
2021/01/11 03:48:22;;;;;;;7.10;6.40;;;21.70;29.00;;;;;;5030248;28;20756;-59
2021/01/11 03:50:48;;;;;;;7.28;6.53;;;21.70;29.20;;;;;;5031557;28;20410;-59
2021/01/11 03:53:14;;;;;;;7.05;6.35;;;21.70;29.20;;;;;;5031132;28;20406;-60
2021/01/11 03:55:40;;;;;;;7.25;6.45;;;21.70;29.20;;;;;;5031522;28;20387;-59
2021/01/11 03:58:07;;;;;;;7.88;6.68;;;21.70;29.00;;;;;;5030143;28;20398;-58
2021/01/11 04:00:33;;;;;;;7.32;6.50;;;21.60;29.10;;;;;;5031298;28;20423;-59
2021/01/11 04:02:59;;;;;;;7.30;6.57;;;21.60;28.80;;;;;;5031158;28;20392;-59
2021/01/11 04:05:26;;;;;;;8.25;7.20;;;21.60;29.10;;;;;;5029803;28;20490;-61
2021/01/11 04:07:52;;;;;;;7.95;6.45;;;21.60;28.60;;;;;;5006709;28;20401;-59
2021/01/11 04:10:18;;;;;;;7.70;6.57;;;21.60;29.20;;;;;;5034834;28;21008;-59
2021/01/11 04:12:44;;;;;;;7.33;6.47;;;21.50;29.60;;;;;;5029947;28;20419;-58
2021/01/11 04:15:10;;;;;;;7.50;6.50;;;21.60;29.20;;;;;;5030732;28;20751;-59
2021/01/11 04:17:36;;;;;;;8.38;7.32;;;21.60;29.30;;;;;;5030197;28;20394;-59
2021/01/11 04:20:04;;;;;;;9.95;6.20;;;21.50;29.60;;;;;;5028857;28;20419;-58
2021/01/11 04:22:30;;;;;;;9.68;7.10;;;21.60;30.10;;;;;;5029428;28;20895;-58
2021/01/11 04:24:55;;;;;;;8.90;6.27;;;21.50;30.00;;;;;;5030791;28;20391;-59
2021/01/11 04:27:21;;;;;;;9.65;6.63;;;21.60;30.20;;;;;;5029921;28;20395;-59
2021/01/11 04:29:47;;;;;;;11.88;6.53;;;21.50;30.40;;;;;;5030661;28;20383;-59
2021/01/11 04:32:13;;;;;;;11.93;8.17;;;21.60;31.30;;;;;;5034954;28;20433;-59
2021/01/11 04:34:38;;;;;;;10.27;7.25;;;21.70;31.40;;;;;;5034944;28;20399;-59
2021/01/11 04:37:07;;;;;;;10.47;7.33;;;21.70;31.50;;;;;;5034217;28;20489;-58
2021/01/11 04:39:34;;;;;;;10.25;6.97;;;21.70;31.80;;;;;;5034504;28;20407;-59
2021/01/11 04:42:02;;;;;;;10.88;7.18;;;21.70;32.10;;;;;;5033461;28;20494;-60
2021/01/11 04:44:29;;;;;;;11.15;7.30;;;21.70;32.00;;;;;;5034796;28;20381;-59
2021/01/11 04:46:56;;;;;;;12.57;7.13;;;21.70;32.00;;;;;;5034395;28;20395;-59
2021/01/11 04:49:22;;;;;;;10.18;7.00;;;21.70;32.80;;;;;;5032951;28;21091;-59
2021/01/11 04:51:48;;;;;;;8.75;6.80;;;21.70;32.80;;;;;;5034457;28;20462;-58
2021/01/11 04:54:18;;;;;;;8.85;6.78;;;21.60;32.00;;;;;;5034513;28;20397;-58
2021/01/11 04:56:47;;;;;;;8.57;6.80;;;21.60;32.40;;;;;;5034552;28;20387;-58
2021/01/11 04:59:18;;;;;;;9.57;7.30;;;21.60;31.80;;;;;;5034158;28;20449;-58
2021/01/11 05:01:48;;;;;;;10.43;7.40;;;21.50;31.40;;;;;;5034634;28;20398;-58
2021/01/11 05:04:15;;;;;;;12.23;7.35;;;21.30;30.70;;;;;;5033059;28;20756;-58
2021/01/11 05:06:46;;;;;;;10.20;7.00;;;21.40;30.80;;;;;;5034619;28;20390;-59
2021/01/11 05:09:14;;;;;;;12.75;7.13;;;21.30;30.90;;;;;;5033307;28;20398;-59
2021/01/11 05:11:40;;;;;;;11.00;7.05;;;21.40;30.70;;;;;;5034010;28;20697;-58
2021/01/11 05:14:06;;;;;;;12.80;7.30;;;21.40;30.60;;;;;;5032972;28;20391;-58
2021/01/11 05:16:32;;;;;;;11.52;6.95;;;21.40;30.40;;;;;;5033036;28;20944;-58
2021/01/11 05:19:21;;;;;;;10.27;7.47;;;21.30;30.30;;;;;;5034016;28;20396;-58
2021/01/11 05:21:47;;;;;;;10.32;6.85;;;21.30;30.10;;;;;;5034119;28;20412;-59
2021/01/11 05:24:36;;;;;;;10.97;7.20;;;21.30;30.10;;;;;;5033833;28;20462;-59
2021/01/11 05:27:03;;;;;;;12.00;7.13;;;21.30;30.00;;;;;;5033775;28;20887;-59
2021/01/11 05:29:28;;;;;;;10.13;7.45;;;21.30;30.10;;;;;;5033716;28;20403;-59
2021/01/11 05:31:57;;;;;;;9.20;7.03;;;21.30;30.00;;;;;;5034018;28;20393;-59
2021/01/11 05:34:23;;;;;;;10.13;7.15;;;21.20;29.90;;;;;;5033607;28;20411;-59
2021/01/11 05:36:50;;;;;;;8.93;7.20;;;21.20;29.90;;;;;;5033662;28;20399;-59
2021/01/11 05:39:16;;;;;;;8.70;7.20;;;21.20;29.80;;;;;;5033398;28;20379;-59
2021/01/11 05:41:43;;;;;;;9.20;7.22;;;21.20;29.80;;;;;;5032588;28;20725;-59
2021/01/11 05:44:13;;;;;;;9.32;7.15;;;21.10;29.70;;;;;;5033578;28;20387;-59
2021/01/11 05:46:40;;;;;;;8.82;6.85;;;21.10;29.80;;;;;;5033758;28;20474;-59
2021/01/11 05:49:10;;;;;;;9.48;6.97;;;21.10;30.00;;;;;;5033193;28;20376;-59
2021/01/11 05:51:37;;;;;;;8.57;7.00;;;21.10;29.80;;;;;;5033614;28;20452;-59
2021/01/11 05:54:06;;;;;;;8.35;7.00;;;21.00;29.60;;;;;;5033268;28;20471;-59
2021/01/11 05:56:50;;;;;;;9.07;6.97;;;21.00;29.90;;;;;;5033445;28;20486;-59
2021/01/11 05:59:16;;;;;;;8.55;6.30;;;21.00;29.80;;;;;;5032994;28;20422;-59
2021/01/11 06:01:41;;;;;;;9.45;7.57;;;21.00;29.90;;;;;;5033338;28;20922;-59
2021/01/11 06:04:07;;;;;;;8.70;6.93;;;21.00;29.60;;;;;;5033238;28;20392;-58
2021/01/11 06:06:33;;;;;;;8.85;7.28;;;21.00;29.30;;;;;;5033273;28;20394;-58
2021/01/11 06:08:59;;;;;;;9.23;7.83;;;21.00;29.80;;;;;;5033075;28;20419;-59
2021/01/11 06:11:28;;;;;;;8.82;7.50;;;21.10;29.00;;;;;;5032524;28;20933;-59
2021/01/11 06:14:00;;;;;;;8.60;7.22;;;21.20;29.00;;;;;;5033141;28;20387;-59
2021/01/11 06:16:28;;;;;;;9.45;7.65;;;21.20;29.00;;;;;;5031783;28;20423;-59
2021/01/11 06:18:55;;;;;;;9.00;7.28;;;21.30;28.80;;;;;;5032992;28;20423;-59
2021/01/11 06:21:21;;;;;;;8.15;7.07;;;21.30;29.00;;;;;;5033728;28;20485;-59
2021/01/11 06:23:48;;;;;;;8.55;7.13;;;21.30;28.80;;;;;;5038612;28;20428;-59
2021/01/11 06:26:33;;;;;;;7.80;6.72;;;21.30;28.90;;;;;;5052232;28;20436;-59
2021/01/11 06:28:58;;;;;;;8.52;7.18;;;21.30;28.60;;;;;;5050110;28;20398;-59
2021/01/11 06:31:34;;;;;;;8.90;7.53;;;21.40;28.70;;;;;;5050400;28;20462;-59
2021/01/11 06:34:00;;;;;;;8.70;7.38;;;21.40;28.70;;;;;;5051294;28;20857;-59
2021/01/11 06:36:33;;;;;;;7.68;6.50;;;21.40;28.70;;;;;;5051649;28;20476;-59
2021/01/11 06:39:09;;;;;;;7.55;6.57;;;21.40;28.70;;;;;;5038403;28;20402;-59
2021/01/11 06:41:35;;;;;;;8.90;7.23;;;21.50;28.70;;;;;;5042333;28;20893;-59
2021/01/11 06:44:08;;;;;;;7.90;6.97;;;21.40;28.80;;;;;;5037983;28;20391;-59
2021/01/11 06:46:39;;;;;;;8.00;6.83;;;21.30;28.80;;;;;;5032191;28;20879;-58
2021/01/11 06:49:05;;;;;;;8.48;6.72;;;21.30;29.00;;;;;;5031881;28;20398;-59
2021/01/11 06:51:42;;;;;;;10.77;8.02;;;21.30;29.00;;;;;;5031918;28;20880;-58
2021/01/11 06:54:13;;;;;;;12.98;8.43;;;21.30;29.00;;;;;;5027280;28;20424;-59
2021/01/11 06:56:40;;;;;;;10.88;7.63;;;21.30;29.00;;;;;;5031255;28;20484;-59
2021/01/11 06:59:16;;;;;;;10.73;8.02;;;21.30;29.00;;;;;;5031189;28;20390;-58
2021/01/11 07:01:43;;;;;;;10.63;7.75;;;21.30;29.00;;;;;;5032486;28;20399;-59
2021/01/11 07:04:11;;;;;;;10.27;7.70;;;21.30;29.00;;;;;;5032171;28;20406;-59
2021/01/11 07:06:45;;;;;;;11.27;8.10;;;21.30;29.00;;;;;;5031580;28;20402;-59
2021/01/11 07:09:17;;;;;;;9.57;8.07;;;21.30;29.00;;;;;;5031645;28;20489;-60
2021/01/11 07:11:48;;;;;;;10.60;7.78;;;21.30;29.00;;;;;;5032016;28;20390;-59
2021/01/11 07:14:20;;;;;;;10.10;7.85;;;21.30;29.00;;;;;;5032099;28;20888;-59
2021/01/11 07:16:49;;;;;;;10.25;7.63;;;21.30;29.00;;;;;;5031884;28;20389;-59
2021/01/11 07:19:20;;;;;;;9.95;8.15;;;21.30;29.00;;;;;;5031318;28;20490;-59
2021/01/11 07:21:47;;;;;;;10.18;7.85;;;21.30;29.00;;;;;;5031127;28;20926;-59
2021/01/11 07:24:13;;;;;;;10.13;8.27;;;21.30;29.00;;;;;;5031419;28;20387;-60
2021/01/11 07:26:39;;;;;;;8.90;7.70;;;21.30;29.00;;;;;;5031717;28;20795;-58
2021/01/11 07:29:17;;;;;;;10.52;8.02;;;21.30;29.50;;;;;;5031457;28;20395;-59
2021/01/11 07:31:45;;;;;;;9.70;7.65;;;21.30;29.00;;;;;;5031774;28;20395;-59
2021/01/11 07:34:24;;;;;;;9.68;7.85;;;21.30;29.00;;;;;;5031569;28;20932;-59
2021/01/11 07:36:51;;;;;;;8.95;7.93;;;21.30;29.10;;;;;;5031407;28;20391;-59
2021/01/11 07:39:24;;;;;;;9.80;8.00;;;21.30;29.00;;;;;;5031111;28;20391;-59
2021/01/11 07:42:10;;;;;;;8.95;7.40;;;21.30;29.10;;;;;;5031704;28;20390;-59
2021/01/11 07:44:39;;;;;;;9.68;8.55;;;21.30;29.10;;;;;;5029844;28;20391;-59
2021/01/11 07:47:09;;;;;;;10.10;8.03;;;21.30;29.10;;;;;;5031505;28;20422;-59
2021/01/11 07:49:40;;;;;;;9.88;7.90;;;21.30;29.10;;;;;;5031411;28;20470;-59
2021/01/11 07:52:10;;;;;;;9.60;8.10;;;21.30;29.00;;;;;;5031470;28;20375;-59
2021/01/11 07:54:36;;;;;;;10.30;8.35;;;21.30;29.00;;;;;;5031426;28;20441;-59
2021/01/11 07:57:07;;;;;;;9.45;7.85;;;21.30;29.00;;;;;;5030855;28;20437;-59
2021/01/11 07:59:32;;;;;;;10.15;7.97;;;21.30;29.00;;;;;;5030326;28;20403;-59
2021/01/11 08:02:01;;;;;;;9.13;7.85;;;21.30;29.00;;;;;;5030851;28;20414;-59
2021/01/11 08:04:35;;;;;;;9.82;8.18;;;21.30;29.00;;;;;;5030512;28;20391;-59
2021/01/11 08:07:04;;;;;;;8.68;7.70;;;21.30;29.00;;;;;;5031246;28;20387;-59
2021/01/11 08:09:30;;;;;;;9.27;7.80;;;21.30;29.00;;;;;;5030879;28;20383;-59
2021/01/11 08:12:16;;;;;;;10.25;8.00;;;21.30;29.00;;;;;;5030048;28;20395;-59
2021/01/11 08:14:45;;;;;;;8.83;7.93;;;21.30;29.00;;;;;;5031121;28;20868;-58
2021/01/11 08:17:19;;;;;;;10.30;7.88;;;21.30;29.00;;;;;;5031061;28;20426;-59
2021/01/11 08:19:52;;;;;;;9.90;7.90;;;21.30;29.00;;;;;;5031048;28;20403;-59
2021/01/11 08:22:19;;;;;;;9.38;7.68;;;21.30;29.00;;;;;;5031214;28;20445;-59
2021/01/11 08:24:49;;;;;;;9.15;7.38;;;21.40;29.10;;;;;;5029839;28;20391;-59
2021/01/11 08:27:23;;;;;;;9.33;8.13;;;21.40;29.10;;;;;;5030691;28;20461;-59
2021/01/11 08:29:49;;;;;;;9.10;7.85;;;21.40;29.00;;;;;;5031030;28;20386;-59
2021/01/11 08:32:17;;;;;;;8.82;7.90;;;21.40;29.00;;;;;;5031165;28;20396;-59
2021/01/11 08:34:43;;;;;;;8.65;7.63;;;21.40;28.90;;;;;;5030912;28;20391;-59
2021/01/11 08:37:27;;;;;;;8.52;7.60;;;21.40;28.90;;;;;;5030731;28;20968;-59
2021/01/11 08:40:17;;;;;;;9.20;7.80;;;21.40;28.90;;;;;;5030338;28;20399;-59
2021/01/11 08:42:44;;;;;;;8.88;7.85;;;21.40;28.90;;;;;;5030442;28;20386;-60
2021/01/11 08:45:28;;;;;;;8.45;7.43;;;21.40;28.90;;;;;;5030311;28;20860;-59
2021/01/11 08:48:08;;;;;;;9.05;7.82;;;21.40;28.80;;;;;;5030647;28;20478;-59
2021/01/11 08:50:41;;;;;;;9.15;7.82;;;21.50;28.90;;;;;;5030700;28;20386;-59
2021/01/11 08:53:29;;;;;;;9.50;8.20;;;21.50;28.80;;;;;;5030853;28;20395;-59
2021/01/11 08:56:04;;;;;;;8.40;7.40;;;21.50;28.80;;;;;;5030717;28;20932;-59
2021/01/11 08:58:33;;;;;;;8.43;7.50;;;21.50;28.70;;;;;;5030789;28;20387;-60
2021/01/11 09:01:09;;;;;;;9.15;7.60;;;21.60;28.80;;;;;;5030870;28;20425;-60
2021/01/11 09:03:54;;;;;;;8.63;7.72;;;21.60;28.80;;;;;;5030363;28;20398;-58
2021/01/11 09:06:40;;;;;;;8.40;7.28;;;21.70;28.80;;;;;;5030732;28;20466;-59
2021/01/11 09:09:10;;;;;;;8.00;7.20;;;21.70;28.80;;;;;;5030581;28;20768;-59
2021/01/11 09:11:36;;;;;;;7.72;6.93;;;21.80;28.80;;;;;;5030460;28;20398;-59
2021/01/11 09:14:09;;;;;;;8.23;6.95;;;21.80;28.80;;;;;;5030354;28;20417;-59
2021/01/11 09:16:36;;;;;;;8.35;7.20;;;21.90;28.80;;;;;;5030043;28;20387;-59
2021/01/11 09:19:19;;;;;;;7.90;7.07;;;21.90;28.80;;;;;;5034103;28;20391;-59
2021/01/11 09:21:56;;;;;;;8.13;7.23;;;21.80;28.60;;;;;;5032768;28;20433;-61
2021/01/11 09:24:22;;;;;;;8.27;7.40;;;21.80;28.50;;;;;;5034163;28;20406;-60
2021/01/11 09:26:47;;;;;;;8.00;7.17;;;21.80;28.30;;;;;;5034070;28;20395;-59
2021/01/11 09:29:13;;;;;;;8.10;7.28;;;21.80;28.10;;;;;;5033809;28;20395;-59
2021/01/11 09:31:39;;;;;;;8.48;7.50;;;21.80;27.90;;;;;;5033674;28;20388;-59
2021/01/11 09:34:04;;;;;;;10.10;7.75;;;21.80;27.70;;;;;;5033816;28;20498;-59
2021/01/11 09:36:38;;;;;;;8.75;7.35;;;21.80;27.50;;;;;;5033732;28;20391;-59
2021/01/11 09:39:06;;;;;;;8.55;7.65;;;21.80;27.40;;;;;;5033871;28;20387;-59
2021/01/11 09:41:38;;;;;;;8.32;7.25;;;21.80;27.30;;;;;;5033371;28;20418;-59
2021/01/11 09:44:03;;;;;;;8.15;7.25;;;21.80;27.20;;;;;;5033820;28;20444;-59
2021/01/11 09:46:29;;;;;;;8.13;7.10;;;21.80;27.20;;;;;;5033551;28;20415;-59
2021/01/11 09:48:54;;;;;;;8.67;7.10;;;21.90;27.20;;;;;;5033623;28;20811;-59
2021/01/11 09:51:28;;;;;;;7.07;6.35;;;21.90;27.10;;;;;;5033272;28;20385;-59
2021/01/11 09:53:53;;;;;;;7.78;6.63;;;21.90;27.20;;;;;;5033615;28;20851;-59
2021/01/11 09:56:22;;;;;;;7.43;6.63;;;21.90;27.10;;;;;;5033557;28;20486;-59
2021/01/11 09:58:51;;;;;;;6.90;6.20;;;21.90;27.10;;;;;;5032276;28;20391;-59
2021/01/11 10:01:17;;;;;;;6.97;6.18;;;21.90;27.10;;;;;;5033181;28;20422;-59
2021/01/11 10:03:42;;;;;;;6.90;6.20;;;21.90;27.00;;;;;;5033054;28;20387;-59
2021/01/11 10:06:08;;;;;;;7.10;6.30;;;21.90;26.90;;;;;;5033093;28;20891;-59
2021/01/11 10:08:35;;;;;;;7.13;5.97;;;21.90;27.40;;;;;;5033353;28;20423;-59
2021/01/11 10:11:04;;;;;;;7.15;6.25;;;21.90;26.90;;;;;;5033246;28;20438;-59
2021/01/11 10:13:30;;;;;;;6.88;6.18;;;21.90;26.80;;;;;;5032738;28;20383;-59
2021/01/11 10:15:55;;;;;;;7.55;6.35;;;22.00;26.80;;;;;;5033094;28;20395;-59
2021/01/11 10:18:21;;;;;;;8.27;6.33;;;22.00;27.30;;;;;;5033121;28;20387;-59
2021/01/11 10:20:46;;;;;;;8.80;6.90;;;22.10;27.50;;;;;;5032824;28;20427;-59
2021/01/11 10:23:12;;;;;;;8.50;6.90;;;22.20;27.50;;;;;;5032444;28;20399;-59
2021/01/11 10:25:38;;;;;;;9.13;6.80;;;22.20;27.50;;;;;;5032403;28;20752;-59
2021/01/11 10:28:03;;;;;;;8.27;6.80;;;22.10;27.60;;;;;;5032475;28;20410;-59
2021/01/11 10:30:29;;;;;;;9.00;6.50;;;22.10;27.70;;;;;;5032927;28;20441;-59
2021/01/11 10:32:57;;;;;;;8.47;6.30;;;22.00;27.80;;;;;;5032905;28;20411;-77
2021/01/11 10:35:23;;;;;;;7.22;6.53;;;22.10;27.90;;;;;;5032379;28;20393;-59
2021/01/11 10:37:48;;;;;;;7.72;6.10;;;22.00;28.00;;;;;;5032970;28;20465;-59
2021/01/11 10:40:14;;;;;;;8.03;6.20;;;22.00;28.00;;;;;;5032711;28;20441;-59
2021/01/11 10:42:40;;;;;;;6.85;6.10;;;22.00;28.00;;;;;;5032638;28;20390;-60
2021/01/11 10:45:07;;;;;;;7.05;6.30;;;22.00;28.10;;;;;;5032745;28;20857;-77
2021/01/11 10:47:34;;;;;;;7.70;6.38;;;22.00;28.10;;;;;;5031578;28;20804;-60
2021/01/11 10:49:59;;;;;;;7.10;6.07;;;22.00;28.10;;;;;;5031785;28;20423;-59
2021/01/11 10:52:25;;;;;;;6.22;5.63;;;22.00;28.00;;;;;;5032681;28;20403;-59
2021/01/11 10:54:50;;;;;;;6.73;6.00;;;22.00;28.10;;;;;;5032552;28;20868;-59
2021/01/11 10:57:16;;;;;;;6.60;5.90;;;21.90;28.10;;;;;;5032237;28;20399;-60
2021/01/11 10:59:42;;;;;;;6.47;5.80;;;22.00;28.10;;;;;;5030224;28;20931;-60
2021/01/11 11:02:08;;;;;;;6.37;5.77;;;21.90;28.10;;;;;;5032176;28;20497;-59
2021/01/11 11:04:35;;;;;;;6.25;5.65;;;22.00;28.10;;;;;;5032170;28;20832;-59
2021/01/11 11:07:01;;;;;;;7.03;6.00;;;22.00;28.10;;;;;;5032150;28;20399;-59
2021/01/11 11:09:33;;;;;;;6.60;5.90;;;21.90;28.00;;;;;;5031747;28;20417;-59
2021/01/11 11:12:02;;;;;;;6.72;6.00;;;22.00;28.10;;;;;;5032104;28;20477;-59
2021/01/11 11:14:31;;;;;;;7.07;6.38;;;22.00;28.10;;;;;;5032056;28;20387;-68
2021/01/11 11:16:57;;;;;;;6.85;6.07;;;22.00;28.10;;;;;;5030954;28;20407;-78
2021/01/11 11:19:25;;;;;;;6.97;6.15;;;21.90;28.00;;;;;;5031560;28;20939;-59
2021/01/11 11:21:53;;;;;;;6.55;5.82;;;21.90;28.00;;;;;;5030788;28;20806;-59
2021/01/11 11:24:22;;;;;;;6.63;5.90;;;21.90;28.10;;;;;;5031288;28;20391;-60
2021/01/11 11:26:50;;;;;;;6.70;6.00;;;22.00;28.10;;;;;;5031938;28;20391;-59
2021/01/11 11:29:16;;;;;;;6.60;5.88;;;22.00;28.10;;;;;;5030469;28;20886;-59
2021/01/11 11:31:42;;;;;;;6.78;5.90;;;21.90;28.10;;;;;;5031527;28;20398;-59
2021/01/11 11:34:09;;;;;;;6.53;5.83;;;21.90;28.20;;;;;;5031546;28;20545;-59
2021/01/11 11:36:36;;;;;;;7.22;5.88;;;21.90;28.20;;;;;;5031687;28;20409;-59
2021/01/11 11:39:02;;;;;;;6.45;5.85;;;21.90;28.20;;;;;;5031375;28;20392;-59
2021/01/11 11:41:27;;;;;;;6.07;5.47;;;21.90;28.10;;;;;;5030685;28;20518;-60
2021/01/11 11:43:53;;;;;;;6.40;5.80;;;21.90;28.20;;;;;;5031480;28;20478;-58
2021/01/11 11:46:18;;;;;;;6.10;5.50;;;21.90;28.20;;;;;;5031685;28;20391;-59
2021/01/11 11:48:44;;;;;;;6.65;5.80;;;21.90;28.10;;;;;;5031657;28;20807;-59
2021/01/11 11:51:10;;;;;;;6.13;5.53;;;21.90;28.20;;;;;;5031314;28;20409;-58
2021/01/11 11:53:38;;;;;;;6.45;5.85;;;21.90;28.20;;;;;;5031271;28;20407;-59
2021/01/11 11:56:04;;;;;;;6.18;5.57;;;21.90;28.20;;;;;;5031492;28;20399;-60
2021/01/11 11:58:29;;;;;;;6.18;5.57;;;21.90;28.20;;;;;;5031615;28;20902;-59
2021/01/11 12:00:55;;;;;;;6.53;5.83;;;21.90;28.20;;;;;;5031435;28;20433;-60
2021/01/11 12:03:21;;;;;;;6.00;5.40;;;21.90;28.10;;;;;;5031329;28;20394;-59
2021/01/11 12:05:46;;;;;;;6.37;5.67;;;21.90;28.20;;;;;;5029866;28;20737;-59
2021/01/11 12:08:12;;;;;;;6.28;5.38;;;22.00;28.20;;;;;;5031604;28;20960;-59
2021/01/11 12:10:37;;;;;;;5.93;5.33;;;22.00;28.20;;;;;;5031422;28;20935;-59
2021/01/11 12:13:03;;;;;;;6.10;5.50;;;22.00;28.20;;;;;;5031381;28;20387;-61
2021/01/11 12:15:29;;;;;;;6.13;5.53;;;22.00;28.20;;;;;;5030950;28;20395;-59
2021/01/11 12:17:54;;;;;;;5.80;5.17;;;21.90;28.10;;;;;;5031365;28;20462;-59
2021/01/11 12:20:20;;;;;;;6.00;5.40;;;22.00;28.30;;;;;;5031155;28;20791;-59
2021/01/11 12:22:46;;;;;;;5.87;5.27;;;22.00;28.20;;;;;;5031207;28;20724;-59
2021/01/11 12:25:12;;;;;;;5.65;5.07;;;21.90;28.20;;;;;;5031320;28;20387;-59
2021/01/11 12:27:38;;;;;;;5.60;5.00;;;22.00;28.20;;;;;;5030706;28;20553;-64
2021/01/11 12:30:04;;;;;;;5.72;5.13;;;22.00;28.30;;;;;;5031172;28;20485;-59
2021/01/11 12:32:30;;;;;;;5.95;5.32;;;21.90;28.30;;;;;;5030989;28;20912;-59
2021/01/11 12:34:56;;;;;;;5.82;5.28;;;21.90;28.30;;;;;;5031007;28;20403;-59
2021/01/11 12:37:21;;;;;;;5.60;4.97;;;21.90;28.30;;;;;;5030344;28;20391;-59
2021/01/11 12:39:47;;;;;;;6.13;5.53;;;22.00;28.30;;;;;;5030623;28;20410;-59
2021/01/11 12:42:14;;;;;;;6.57;5.40;;;21.90;28.30;;;;;;5031196;28;20406;-59
2021/01/11 12:44:40;;;;;;;5.63;4.95;;;21.90;28.20;;;;;;5031153;28;20461;-59
2021/01/11 12:47:06;;;;;;;5.82;5.22;;;21.90;28.20;;;;;;5031022;28;20494;-59
2021/01/11 12:49:32;;;;;;;5.40;4.90;;;22.00;28.30;;;;;;5030470;28;20451;-59
2021/01/11 12:51:58;;;;;;;5.57;4.97;;;22.00;28.30;;;;;;5032977;28;20481;-58
2021/01/11 12:54:24;;;;;;;5.55;4.97;;;22.00;28.30;;;;;;5034781;28;20390;-60